createdAt,value
2022-12-31T00:01:28.160Z,20.02
2022-12-31T00:03:55.587Z,20.33
2022-12-31T00:06:26.432Z,21.15
2022-12-31T00:08:55.519Z,19.80
2022-12-31T00:11:24.109Z,20.40
2022-12-31T00:13:53.196Z,19.33
2022-12-31T00:16:23.279Z,19.38
2022-12-31T00:18:52.419Z,17.38
2022-12-31T00:21:20.506Z,15.55
2022-12-31T00:23:48.577Z,13.40
2022-12-31T00:26:17.723Z,12.35
2022-12-31T00:28:45.446Z,14.27
2022-12-31T00:31:16.825Z,14.35
2022-12-31T00:33:44.889Z,13.23
2022-12-31T00:36:14.359Z,9.00
2022-12-31T00:38:43.159Z,7.88
2022-12-31T00:41:10.653Z,7.57
2022-12-31T00:43:37.793Z,7.60
2022-12-31T00:46:06.184Z,6.80
2022-12-31T00:48:35.397Z,7.32
2022-12-31T00:51:04.175Z,7.63
2022-12-31T00:53:31.493Z,7.50
2022-12-31T00:56:02.193Z,7.57
2022-12-31T00:58:29.380Z,7.28
2022-12-31T01:00:56.412Z,7.07
2022-12-31T01:03:23.624Z,7.40
2022-12-31T01:05:52.291Z,7.65
2022-12-31T01:08:19.240Z,6.45
2022-12-31T01:11:07.854Z,6.38
2022-12-31T01:13:35.031Z,7.22
2022-12-31T01:16:07.743Z,7.13
2022-12-31T01:18:34.845Z,8.70
2022-12-31T01:21:04.789Z,7.70
2022-12-31T01:23:32.007Z,7.70
2022-12-31T01:26:00.399Z,7.75
2022-12-31T01:28:27.892Z,8.27
2022-12-31T01:30:55.391Z,7.90
2022-12-31T01:33:22.387Z,7.85
2022-12-31T01:35:52.153Z,7.72
2022-12-31T01:38:20.510Z,7.90
2022-12-31T01:40:47.448Z,8.50
2022-12-31T01:43:16.871Z,8.30
2022-12-31T01:45:45.820Z,8.95
2022-12-31T01:48:15.611Z,8.80
2022-12-31T01:50:43.221Z,9.10
2022-12-31T01:53:11.848Z,8.75
2022-12-31T01:55:46.443Z,9.15
2022-12-31T01:58:17.429Z,10.95
2022-12-31T02:00:45.342Z,10.40
2022-12-31T02:03:13.413Z,11.25
2022-12-31T02:05:46.441Z,11.85
2022-12-31T02:08:14.033Z,12.80
2022-12-31T02:10:42.455Z,12.75
2022-12-31T02:13:09.746Z,12.27
2022-12-31T02:15:44.209Z,12.55
2022-12-31T02:18:16.925Z,13.80
2022-12-31T02:21:28.229Z,11.98
2022-12-31T02:24:30.632Z,11.82
2022-12-31T02:27:07.122Z,12.00
2022-12-31T02:30:10.623Z,11.40
2022-12-31T02:33:03.536Z,11.88
2022-12-31T02:35:41.724Z,12.48
2022-12-31T02:38:12.923Z,12.50
2022-12-31T02:40:40.415Z,10.60
2022-12-31T02:43:07.405Z,11.32
2022-12-31T02:45:40.210Z,11.10
2022-12-31T02:48:28.752Z,11.43
2022-12-31T02:51:05.745Z,10.52
2022-12-31T02:53:50.190Z,10.73
2022-12-31T02:56:22.627Z,10.35
2022-12-31T02:59:17.999Z,10.30
2022-12-31T03:02:09.326Z,10.27
2022-12-31T03:04:37.361Z,9.73
2022-12-31T03:07:06.493Z,10.00
2022-12-31T03:09:34.504Z,10.45
2022-12-31T03:12:21.379Z,11.20
2022-12-31T03:14:48.811Z,11.10
2022-12-31T03:17:17.261Z,10.93
2022-12-31T03:20:03.485Z,11.15
2022-12-31T03:22:30.917Z,10.60
2022-12-31T03:25:18.961Z,10.60
2022-12-31T03:27:47.063Z,10.18
2022-12-31T03:30:15.553Z,11.60
2022-12-31T03:32:45.615Z,10.98
2022-12-31T03:35:14.338Z,10.88
2022-12-31T03:37:41.864Z,11.43
2022-12-31T03:40:11.973Z,10.85
2022-12-31T03:42:39.104Z,10.48
2022-12-31T03:45:07.370Z,11.40
2022-12-31T03:47:34.551Z,10.93
2022-12-31T03:50:03.240Z,10.27
2022-12-31T03:52:30.261Z,10.25
2022-12-31T03:54:57.214Z,10.63
2022-12-31T03:57:24.329Z,10.68
2022-12-31T03:59:51.370Z,10.25
2022-12-31T04:02:20.923Z,10.18
2022-12-31T04:04:51.742Z,8.80
2022-12-31T04:07:20.118Z,10.13
2022-12-31T04:09:47.074Z,8.95
2022-12-31T04:12:14.055Z,9.85
2022-12-31T04:14:41.298Z,10.05
2022-12-31T04:17:08.286Z,9.40
2022-12-31T04:19:35.292Z,9.43
2022-12-31T04:22:02.350Z,9.43
2022-12-31T04:24:30.861Z,9.82
2022-12-31T04:27:02.109Z,9.45
2022-12-31T04:29:32.519Z,8.23
2022-12-31T04:31:59.543Z,10.40
2022-12-31T04:34:26.578Z,9.85
2022-12-31T04:36:53.808Z,10.25
2022-12-31T04:39:20.769Z,8.82
2022-12-31T04:41:49.151Z,10.80
2022-12-31T04:44:16.260Z,10.23
2022-12-31T04:46:43.318Z,10.95
2022-12-31T04:49:10.600Z,11.20
2022-12-31T04:51:38.201Z,9.50
2022-12-31T04:54:05.607Z,9.05
2022-12-31T04:56:33.007Z,9.68
2022-12-31T04:59:01.340Z,9.88
2022-12-31T05:01:28.328Z,9.85
2022-12-31T05:03:55.312Z,10.40
2022-12-31T05:06:23.593Z,12.10
2022-12-31T05:08:50.921Z,13.27
2022-12-31T05:11:17.903Z,13.60
2022-12-31T05:13:44.943Z,13.32
2022-12-31T05:16:13.340Z,11.90
2022-12-31T05:18:40.324Z,12.05
2022-12-31T05:21:07.491Z,12.88
2022-12-31T05:23:34.717Z,13.05
2022-12-31T05:26:02.054Z,12.82
2022-12-31T05:28:29.070Z,13.35
2022-12-31T05:30:56.255Z,15.30
2022-12-31T05:33:25.001Z,15.30
2022-12-31T05:35:51.991Z,15.55
2022-12-31T05:38:18.919Z,14.25
2022-12-31T05:40:45.931Z,12.30
2022-12-31T05:43:14.162Z,12.55
2022-12-31T05:45:41.156Z,11.27
2022-12-31T05:48:08.200Z,12.30
2022-12-31T05:50:36.901Z,10.57
2022-12-31T05:53:04.305Z,10.75
2022-12-31T05:55:31.263Z,9.98
2022-12-31T05:57:58.311Z,11.80
2022-12-31T06:00:25.233Z,11.18
2022-12-31T06:02:52.187Z,11.35
2022-12-31T06:05:25.757Z,11.63
2022-12-31T06:07:54.559Z,12.45
2022-12-31T06:10:21.504Z,10.68
2022-12-31T06:12:48.446Z,11.38
2022-12-31T06:15:15.610Z,11.98
2022-12-31T06:17:42.552Z,11.38
2022-12-31T06:20:13.134Z,11.60
2022-12-31T06:22:40.417Z,10.85
2022-12-31T06:25:09.788Z,10.25
2022-12-31T06:27:36.723Z,10.30
2022-12-31T06:30:04.302Z,11.15
2022-12-31T06:32:31.354Z,12.13
2022-12-31T06:34:58.296Z,19.33
2022-12-31T06:37:25.244Z,27.23
2022-12-31T06:39:52.163Z,28.35
2022-12-31T06:42:20.481Z,32.28
2022-12-31T06:44:47.461Z,36.75
2022-12-31T06:47:14.400Z,34.08
2022-12-31T06:49:41.365Z,33.90
2022-12-31T06:52:08.505Z,31.17
2022-12-31T06:54:36.013Z,25.88
2022-12-31T06:57:05.541Z,26.95
2022-12-31T06:59:37.692Z,23.73
2022-12-31T07:02:34.821Z,24.83
2022-12-31T07:05:27.907Z,27.00
2022-12-31T07:08:02.011Z,25.00
2022-12-31T07:10:39.599Z,29.33
2022-12-31T07:13:39.056Z,37.70
2022-12-31T07:16:28.503Z,31.17
2022-12-31T07:19:02.618Z,19.00
2022-12-31T07:21:34.978Z,23.08
2022-12-31T07:24:03.002Z,19.90
2022-12-31T07:26:42.784Z,17.02
2022-12-31T07:29:19.704Z,17.52
2022-12-31T07:31:59.535Z,16.92
2022-12-31T07:34:35.209Z,20.60
2022-12-31T07:37:08.175Z,21.67
2022-12-31T07:39:41.760Z,21.80
2022-12-31T07:42:15.573Z,23.48
2022-12-31T07:44:52.811Z,19.08
2022-12-31T07:47:24.388Z,21.17
2022-12-31T07:49:52.356Z,23.70
2022-12-31T07:52:20.855Z,21.13
2022-12-31T07:54:47.892Z,12.93
2022-12-31T07:57:16.981Z,14.07
2022-12-31T08:00:03.387Z,11.70
2022-12-31T08:03:04.170Z,11.13
2022-12-31T08:05:36.588Z,11.63
2022-12-31T08:08:15.139Z,8.73
2022-12-31T08:10:59.951Z,9.70
2022-12-31T08:13:27.597Z,9.03
2022-12-31T08:15:55.163Z,9.20
2022-12-31T08:18:24.235Z,7.57
2022-12-31T08:21:00.720Z,7.75
2022-12-31T08:23:33.894Z,7.15
2022-12-31T08:26:13.954Z,7.80
2022-12-31T08:28:57.892Z,7.78
2022-12-31T08:31:33.868Z,7.22
2022-12-31T08:34:10.679Z,6.93
2022-12-31T08:36:48.572Z,6.50
2022-12-31T08:39:29.867Z,6.90
2022-12-31T08:41:59.003Z,6.40
2022-12-31T08:44:36.465Z,6.68
2022-12-31T08:47:16.750Z,6.60
2022-12-31T08:49:45.601Z,6.13
2022-12-31T08:52:16.166Z,7.07
2022-12-31T08:54:43.798Z,6.57
2022-12-31T08:57:17.952Z,7.53
2022-12-31T08:59:53.234Z,7.55
2022-12-31T09:05:11.549Z,6.97
2022-12-31T09:07:42.634Z,7.45
2022-12-31T09:10:20.907Z,7.20
2022-12-31T09:12:53.917Z,6.93
2022-12-31T09:15:26.760Z,7.30
2022-12-31T09:17:54.531Z,7.03
2022-12-31T09:20:26.257Z,7.45
2022-12-31T09:22:56.224Z,7.60
2022-12-31T09:25:25.121Z,7.32
2022-12-31T09:28:03.500Z,7.90
2022-12-31T09:30:41.257Z,7.97
2022-12-31T09:33:12.753Z,8.27
2022-12-31T09:35:51.234Z,6.78
2022-12-31T09:38:22.934Z,7.20
2022-12-31T09:41:00.040Z,7.32
2022-12-31T09:44:03.388Z,7.28
2022-12-31T09:47:17.874Z,7.78
2022-12-31T09:50:16.247Z,4.80
2022-12-31T09:53:01.876Z,4.80
2022-12-31T09:58:12.068Z,4.60
2022-12-31T10:00:46.888Z,5.47
2022-12-31T10:03:25.542Z,4.97
2022-12-31T10:06:24.550Z,5.05
2022-12-31T10:09:16.335Z,4.47
2022-12-31T10:12:03.532Z,4.32
2022-12-31T10:14:47.351Z,4.88
2022-12-31T10:17:39.828Z,4.80
2022-12-31T10:20:28.411Z,5.47
2022-12-31T10:23:08.365Z,5.13
2022-12-31T10:26:00.352Z,5.45
2022-12-31T10:28:37.935Z,5.80
2022-12-31T10:31:14.700Z,6.13
2022-12-31T10:33:52.281Z,6.38
2022-12-31T10:36:29.375Z,6.47
2022-12-31T10:39:14.373Z,4.45
2022-12-31T10:42:16.836Z,3.92
2022-12-31T10:45:22.371Z,4.18
2022-12-31T10:48:29.517Z,4.10
2022-12-31T10:51:29.606Z,4.00
2022-12-31T10:54:18.974Z,3.70
2022-12-31T10:57:16.512Z,4.10
2022-12-31T11:00:16.156Z,3.50
2022-12-31T11:03:13.444Z,3.45
2022-12-31T11:06:20.797Z,3.47
2022-12-31T11:09:20.106Z,3.63
2022-12-31T11:11:58.191Z,3.78
2022-12-31T11:14:53.106Z,3.50
2022-12-31T11:17:37.599Z,3.23
2022-12-31T11:20:23.681Z,3.47
2022-12-31T11:23:01.433Z,3.20
2022-12-31T11:25:43.768Z,4.00
2022-12-31T11:28:30.625Z,3.35
2022-12-31T11:31:13.669Z,3.45
2022-12-31T11:33:56.484Z,3.42
2022-12-31T11:36:35.105Z,3.47
2022-12-31T11:39:34.560Z,3.58
2022-12-31T11:42:12.103Z,3.67
2022-12-31T11:44:46.435Z,3.60
2022-12-31T11:47:32.336Z,3.47
2022-12-31T11:50:26.277Z,3.40
2022-12-31T11:53:02.088Z,3.65
2022-12-31T11:55:38.276Z,3.70
2022-12-31T11:58:13.095Z,3.92
2022-12-31T12:00:45.312Z,3.38
2022-12-31T12:03:13.013Z,3.70
2022-12-31T12:05:41.451Z,3.90
2022-12-31T12:08:08.444Z,3.22
2022-12-31T12:10:42.072Z,3.70
2022-12-31T12:13:21.996Z,3.97
2022-12-31T12:15:51.399Z,3.90
2022-12-31T12:18:29.064Z,3.72
2022-12-31T12:21:06.134Z,3.90
2022-12-31T12:23:33.182Z,3.72
2022-12-31T12:26:00.307Z,3.90
2022-12-31T12:28:29.576Z,3.30
2022-12-31T12:30:59.453Z,3.65
2022-12-31T12:33:29.753Z,3.15
2022-12-31T12:36:09.166Z,3.40
2022-12-31T12:38:37.359Z,3.55
2022-12-31T12:41:06.287Z,3.60
2022-12-31T12:43:35.327Z,3.80
2022-12-31T12:46:05.440Z,3.40
2022-12-31T12:48:41.266Z,3.78
2022-12-31T12:51:23.672Z,3.58
2022-12-31T12:54:01.689Z,3.63
2022-12-31T12:56:37.855Z,3.25
2022-12-31T12:59:28.155Z,4.05
2022-12-31T13:02:07.254Z,3.97
2022-12-31T13:04:59.108Z,3.50
2022-12-31T13:07:41.239Z,3.75
2022-12-31T13:10:23.659Z,3.80
2022-12-31T13:15:53.869Z,3.95
2022-12-31T13:18:33.266Z,3.60
2022-12-31T13:21:20.265Z,3.92
2022-12-31T13:23:54.438Z,4.38
2022-12-31T13:26:25.649Z,4.05
2022-12-31T13:28:53.394Z,4.43
2022-12-31T13:31:26.471Z,3.92
2022-12-31T13:33:58.552Z,4.13
2022-12-31T13:36:28.581Z,4.07
2022-12-31T13:39:02.933Z,4.03
2022-12-31T13:41:34.755Z,4.75
2022-12-31T13:44:08.906Z,4.13
2022-12-31T13:46:44.595Z,4.00
2022-12-31T13:49:18.850Z,4.57
2022-12-31T13:51:49.297Z,3.80
2022-12-31T13:54:30.159Z,4.20
2022-12-31T13:57:05.774Z,3.97
2022-12-31T13:59:36.965Z,4.28
2022-12-31T14:02:16.691Z,4.40
2022-12-31T14:04:49.840Z,4.50
2022-12-31T14:07:22.944Z,4.65
2022-12-31T14:09:51.640Z,4.35
2022-12-31T14:12:39.969Z,4.30
2022-12-31T14:15:17.232Z,4.47
2022-12-31T14:17:50.616Z,5.18
2022-12-31T14:20:26.163Z,4.28
2022-12-31T14:23:03.139Z,4.53
2022-12-31T14:25:37.342Z,4.55
2022-12-31T14:28:06.855Z,4.45
2022-12-31T14:30:39.557Z,5.72
2022-12-31T14:33:20.077Z,4.82
2022-12-31T14:36:06.773Z,4.95
2022-12-31T14:38:50.498Z,5.60
2022-12-31T14:41:34.498Z,5.20
2022-12-31T14:44:14.389Z,5.20
2022-12-31T14:46:56.549Z,5.28
2022-12-31T14:49:35.572Z,5.07
2022-12-31T14:52:19.576Z,5.35
2022-12-31T14:54:46.584Z,5.57
2022-12-31T14:57:24.558Z,6.93
2022-12-31T14:59:54.277Z,5.85
2022-12-31T15:02:27.258Z,5.40
2022-12-31T15:05:11.443Z,5.20
2022-12-31T15:07:50.694Z,5.18
2022-12-31T15:10:21.958Z,5.68
2022-12-31T15:13:01.814Z,5.68
2022-12-31T15:16:01.425Z,5.95
2022-12-31T15:18:54.850Z,5.53
2022-12-31T15:21:37.516Z,5.22
2022-12-31T15:24:17.850Z,5.60
2022-12-31T15:26:49.941Z,6.18
2022-12-31T15:29:28.019Z,5.35
2022-12-31T15:31:59.058Z,4.78
2022-12-31T15:34:29.815Z,5.35
2022-12-31T15:36:59.913Z,5.68
2022-12-31T15:39:41.263Z,4.88
2022-12-31T15:42:39.877Z,5.28
2022-12-31T15:45:18.898Z,5.18
2022-12-31T15:47:48.700Z,5.57
2022-12-31T15:50:17.910Z,5.43
2022-12-31T15:52:50.682Z,5.60
2022-12-31T15:55:25.446Z,6.13
2022-12-31T15:57:57.883Z,21.13
2022-12-31T16:00:36.265Z,33.92
2022-12-31T16:03:03.586Z,9.30
2022-12-31T16:05:35.249Z,26.90
2022-12-31T16:08:02.286Z,8.77
2022-12-31T16:10:30.936Z,6.40
2022-12-31T16:12:59.598Z,5.85
2022-12-31T16:15:30.627Z,6.50
2022-12-31T16:18:00.288Z,6.40
2022-12-31T16:20:32.291Z,8.02
2022-12-31T16:23:01.840Z,8.70
2022-12-31T16:25:31.897Z,9.05
2022-12-31T16:28:01.639Z,9.35
2022-12-31T16:30:32.132Z,9.45
2022-12-31T16:33:03.181Z,9.48
2022-12-31T16:35:32.436Z,9.05
2022-12-31T16:38:10.069Z,8.32
2022-12-31T16:40:37.059Z,8.80
2022-12-31T16:43:04.372Z,8.70
2022-12-31T16:45:35.450Z,9.10
2022-12-31T16:48:12.788Z,13.05
2022-12-31T16:50:45.256Z,18.10
2022-12-31T16:53:17.484Z,16.60
2022-12-31T16:55:52.063Z,18.45
2022-12-31T16:58:22.795Z,20.15
2022-12-31T17:00:51.841Z,20.30
2022-12-31T17:03:21.633Z,22.00
2022-12-31T17:06:12.406Z,34.58
2022-12-31T17:08:41.825Z,38.67
2022-12-31T17:11:23.997Z,40.20
2022-12-31T17:14:00.868Z,37.20
2022-12-31T17:16:29.342Z,35.72
2022-12-31T17:18:57.938Z,36.08
2022-12-31T17:21:29.951Z,33.63
2022-12-31T17:24:00.517Z,30.30
2022-12-31T17:26:29.949Z,29.70
2022-12-31T17:28:58.636Z,24.38
2022-12-31T17:31:33.571Z,22.23
2022-12-31T17:34:20.651Z,20.95
2022-12-31T17:36:58.337Z,56.33
2022-12-31T17:39:26.464Z,33.00
2022-12-31T17:41:57.277Z,30.63
2022-12-31T17:44:28.581Z,31.63
2022-12-31T17:46:57.632Z,33.97
2022-12-31T17:49:29.622Z,50.58
2022-12-31T17:51:56.631Z,50.75
2022-12-31T17:54:23.716Z,46.92
2022-12-31T17:56:52.021Z,29.58
2022-12-31T17:59:21.733Z,28.38
2022-12-31T18:01:49.029Z,27.90
2022-12-31T18:04:19.074Z,25.13
2022-12-31T18:06:46.171Z,23.65
2022-12-31T18:09:13.147Z,23.38
2022-12-31T18:11:40.959Z,22.30
2022-12-31T18:14:08.412Z,22.25
2022-12-31T18:16:35.677Z,20.95
2022-12-31T18:19:02.980Z,18.13
2022-12-31T18:21:36.101Z,20.25
2022-12-31T18:26:33.073Z,19.08
2022-12-31T18:29:11.385Z,20.25
2022-12-31T18:31:39.483Z,21.08
2022-12-31T18:34:06.443Z,27.05
2022-12-31T18:36:34.768Z,36.95
2022-12-31T18:39:02.096Z,41.22
2022-12-31T18:41:35.943Z,49.60
2022-12-31T18:44:03.367Z,46.58
2022-12-31T18:46:30.314Z,44.90
2022-12-31T18:48:57.328Z,49.13
2022-12-31T18:51:31.435Z,49.90
2022-12-31T18:54:01.478Z,49.85
2022-12-31T18:56:28.807Z,49.55
2022-12-31T18:58:55.920Z,49.67
2022-12-31T19:01:29.653Z,47.67
2022-12-31T19:03:58.561Z,48.83
2022-12-31T19:06:26.441Z,47.53
2022-12-31T19:08:53.916Z,48.03
2022-12-31T19:11:23.342Z,44.60
2022-12-31T19:13:50.641Z,42.72
2022-12-31T19:16:18.074Z,36.58
2022-12-31T19:18:46.375Z,35.30
2022-12-31T19:21:16.593Z,35.42
2022-12-31T19:23:44.127Z,35.45
2022-12-31T19:26:15.503Z,35.60
2022-12-31T19:28:47.676Z,37.47
2022-12-31T19:31:15.161Z,40.17
2022-12-31T19:33:42.400Z,37.85
2022-12-31T19:36:14.672Z,38.38
2022-12-31T19:38:41.686Z,37.15
2022-12-31T19:41:15.206Z,37.70
2022-12-31T19:43:42.234Z,37.00
2022-12-31T19:46:13.455Z,35.40
2022-12-31T19:48:40.640Z,43.05
2022-12-31T19:51:09.852Z,38.95
2022-12-31T19:53:36.816Z,39.15
2022-12-31T19:56:04.572Z,38.95
2022-12-31T19:58:31.736Z,38.20
2022-12-31T20:01:02.969Z,38.63
2022-12-31T20:03:32.771Z,36.60
2022-12-31T20:06:04.781Z,35.80
2022-12-31T20:08:31.769Z,39.47
2022-12-31T20:10:59.117Z,35.83
2022-12-31T20:13:26.663Z,33.30
2022-12-31T20:15:53.806Z,36.92
2022-12-31T20:18:22.957Z,36.15
2022-12-31T20:20:55.884Z,28.90
2022-12-31T20:23:23.146Z,30.25
2022-12-31T20:25:57.151Z,25.65
2022-12-31T20:28:24.215Z,25.70
2022-12-31T20:30:51.763Z,23.70
2022-12-31T20:33:20.586Z,23.08
2022-12-31T20:35:47.652Z,22.73
2022-12-31T20:38:16.036Z,23.25
2022-12-31T20:40:46.743Z,23.35
2022-12-31T20:43:14.110Z,25.40
2022-12-31T20:45:41.277Z,26.67
2022-12-31T20:48:08.509Z,27.25
2022-12-31T20:50:35.919Z,25.65
2022-12-31T20:53:03.163Z,25.58
2022-12-31T20:55:32.337Z,24.80
2022-12-31T20:58:00.596Z,23.98
2022-12-31T21:00:28.070Z,20.35
2022-12-31T21:03:04.983Z,19.08
2022-12-31T21:05:37.792Z,20.90
2022-12-31T21:08:05.006Z,19.40
2022-12-31T21:10:34.544Z,17.52
2022-12-31T21:13:01.498Z,15.35
2022-12-31T21:15:28.686Z,18.48
2022-12-31T21:17:55.849Z,16.55
2022-12-31T21:20:23.014Z,15.30
2022-12-31T21:22:50.807Z,14.10
2022-12-31T21:25:17.774Z,12.40
2022-12-31T21:27:46.192Z,12.10
2022-12-31T21:30:19.065Z,14.65
2022-12-31T21:32:47.595Z,13.90
2022-12-31T21:35:42.209Z,13.93
2022-12-31T21:38:01.733Z,15.40
2022-12-31T21:40:28.753Z,18.23
2022-12-31T21:42:57.223Z,13.63
2022-12-31T21:45:25.038Z,12.65
2022-12-31T21:48:13.382Z,11.30
2022-12-31T21:50:40.337Z,12.27
2022-12-31T21:53:07.316Z,12.15
2022-12-31T21:55:56.156Z,12.15
2022-12-31T21:58:26.304Z,13.57
2022-12-31T22:01:13.156Z,12.98
2022-12-31T22:03:40.743Z,13.85
2022-12-31T22:06:10.571Z,14.55
2022-12-31T22:08:39.728Z,14.63
2022-12-31T22:11:07.201Z,17.05
2022-12-31T22:13:36.189Z,18.52
2022-12-31T22:16:05.687Z,17.77
2022-12-31T22:18:35.012Z,17.42
2022-12-31T22:21:03.792Z,17.88
2022-12-31T22:23:31.231Z,16.67
2022-12-31T22:25:58.207Z,14.77
2022-12-31T22:28:37.940Z,13.43
2022-12-31T22:31:08.044Z,12.55
2022-12-31T22:33:35.218Z,12.65
2022-12-31T22:36:04.251Z,12.63
2022-12-31T22:38:31.669Z,13.00
2022-12-31T22:41:05.696Z,14.82
2022-12-31T22:43:33.328Z,13.13
2022-12-31T22:46:08.058Z,13.80
2022-12-31T22:48:35.190Z,13.70
2022-12-31T22:51:02.099Z,14.75
2022-12-31T22:53:29.055Z,14.13
2022-12-31T22:55:56.514Z,12.68
2022-12-31T22:58:24.369Z,13.55
2022-12-31T23:00:52.039Z,13.13
2022-12-31T23:03:20.472Z,12.77
2022-12-31T23:05:51.842Z,14.48
2022-12-31T23:08:23.336Z,16.25
2022-12-31T23:11:05.904Z,19.83
2022-12-31T23:13:56.487Z,21.52
2022-12-31T23:16:43.657Z,17.98
2022-12-31T23:19:31.082Z,17.20
2022-12-31T23:22:16.776Z,16.27
2022-12-31T23:24:43.748Z,15.63
2022-12-31T23:27:11.343Z,17.10
2022-12-31T23:29:46.063Z,18.23
2022-12-31T23:32:14.490Z,19.58
2022-12-31T23:34:43.688Z,18.00
2022-12-31T23:37:10.737Z,17.85
2022-12-31T23:39:37.707Z,18.85
2022-12-31T23:42:05.045Z,16.13
2022-12-31T23:44:31.951Z,16.08
2022-12-31T23:46:58.922Z,17.48
2022-12-31T23:49:25.981Z,20.38
2022-12-31T23:51:54.298Z,17.73
2022-12-31T23:54:21.328Z,17.13
2022-12-31T23:56:48.290Z,17.85
2022-12-31T23:59:15.362Z,18.95
